Time;durP1;ratioP1;P1;durP2;ratioP2;P2;SDS_P1;SDS_P2;PMS_P1;PMS_P2;Temp;Humidity;BMP_temperature;BMP_pressure;BME280_temperature;BME280_humidity;BME280_pressure;Samples;Min_cycle;Max_cycle;Signal;HPM_P1;HPM_P2
2023/12/01 00:00:33;;;;;;;28.40;15.27;;;-4.90;1.00;;;;;;5049036;28;20230;-75
2023/12/01 00:02:59;;;;;;;23.77;12.90;;;-4.80;1.00;;;;;;5059858;28;20623;-74
2023/12/01 00:05:24;;;;;;;25.20;14.83;;;-4.90;1.00;;;;;;5054295;28;20171;-73
2023/12/01 00:07:50;;;;;;;22.50;15.13;;;-4.90;1.00;;;;;;5053276;28;20262;-71
2023/12/01 00:10:16;;;;;;;24.07;14.33;;;-4.70;1.00;;;;;;5053689;28;20504;-75
2023/12/01 00:12:42;;;;;;;24.60;11.73;;;-4.70;1.00;;;;;;5057533;28;20180;-70
2023/12/01 00:15:08;;;;;;;24.93;14.20;;;-4.80;1.00;;;;;;5045541;28;20179;-75
2023/12/01 00:17:34;;;;;;;21.35;13.93;;;-4.90;1.00;;;;;;5044704;28;20564;-72
2023/12/01 00:20:00;;;;;;;27.20;14.98;;;-4.90;1.00;;;;;;5043777;28;20648;-75
2023/12/01 00:22:25;;;;;;;25.15;14.90;;;-4.90;1.00;;;;;;5053580;28;20174;-75
2023/12/01 00:24:51;;;;;;;22.47;13.93;;;-4.80;1.00;;;;;;5052707;28;20163;-76
2023/12/01 00:27:17;;;;;;;24.90;12.97;;;-4.70;1.00;;;;;;5062264;28;20225;-70
2023/12/01 00:29:43;;;;;;;27.03;14.83;;;-4.60;1.00;;;;;;5053650;28;20185;-71
2023/12/01 00:32:09;;;;;;;32.88;16.55;;;-4.50;1.00;;;;;;5040375;28;20210;-74
2023/12/01 00:34:34;;;;;;;25.40;12.87;;;-4.50;1.00;;;;;;5071919;28;20673;-70
2023/12/01 00:37:22;;;;;;;21.63;13.70;;;-4.40;1.00;;;;;;5073146;28;20208;-75
2023/12/01 00:39:48;;;;;;;22.83;13.60;;;-4.40;1.00;;;;;;5073161;28;20202;-75
2023/12/01 00:42:13;;;;;;;21.93;14.37;;;-4.40;1.00;;;;;;5073289;28;20162;-73
2023/12/01 00:44:39;;;;;;;23.67;13.27;;;-4.40;1.00;;;;;;5053460;28;20305;-70
2023/12/01 00:47:05;;;;;;;22.10;13.63;;;-4.40;1.00;;;;;;5036249;28;20195;-73
2023/12/01 00:49:31;;;;;;;24.50;14.33;;;-4.40;1.00;;;;;;5042464;28;20411;-72
2023/12/01 00:51:57;;;;;;;18.40;12.40;;;-4.30;1.00;;;;;;5033273;28;20644;-70
2023/12/01 00:54:23;;;;;;;26.50;14.83;;;-4.30;1.00;;;;;;5032731;28;20178;-75
2023/12/01 00:56:49;;;;;;;22.00;13.35;;;-4.30;1.00;;;;;;5032415;28;20472;-75
2023/12/01 00:59:14;;;;;;;21.50;13.67;;;-4.30;1.00;;;;;;5034065;28;20203;-75
2023/12/01 01:01:40;;;;;;;33.47;17.10;;;-4.20;1.00;;;;;;5051386;28;20179;-73
2023/12/01 01:04:06;;;;;;;29.13;17.37;;;-4.20;1.00;;;;;;5066050;28;20228;-70
2023/12/01 01:06:32;;;;;;;24.40;13.50;;;-4.20;1.00;;;;;;5072067;28;20602;-72
2023/12/01 01:08:57;;;;;;;22.47;14.37;;;-4.20;1.00;;;;;;5072988;28;20397;-72
2023/12/01 01:11:23;;;;;;;18.63;12.90;;;-4.20;1.00;;;;;;5072423;28;20190;-71
2023/12/01 01:13:49;;;;;;;23.90;14.13;;;-4.20;1.00;;;;;;5064036;28;20225;-73
2023/12/01 01:16:15;;;;;;;22.33;13.80;;;-4.20;1.00;;;;;;5042382;28;20195;-74
2023/12/01 01:18:41;;;;;;;24.95;15.43;;;-4.10;1.00;;;;;;5069256;28;20432;-76
2023/12/01 01:21:06;;;;;;;26.43;14.17;;;-4.10;1.00;;;;;;5065825;28;20541;-71
2023/12/01 01:23:32;;;;;;;24.43;14.50;;;-4.10;1.00;;;;;;5052738;28;20425;-71
2023/12/01 01:25:58;;;;;;;23.83;13.77;;;-4.10;1.00;;;;;;5042200;28;20171;-71
2023/12/01 01:28:24;;;;;;;26.10;13.93;;;-4.10;1.00;;;;;;5032529;28;20616;-73
2023/12/01 01:30:49;;;;;;;29.27;14.07;;;-4.20;1.00;;;;;;5036314;28;20217;-71
2023/12/01 01:33:15;;;;;;;18.53;12.73;;;-4.40;1.00;;;;;;5056458;28;20709;-74
2023/12/01 01:35:41;;;;;;;23.90;13.40;;;-4.60;1.00;;;;;;5071701;28;20562;-75
2023/12/01 01:38:07;;;;;;;23.57;13.57;;;-4.50;1.00;;;;;;5072690;28;20190;-75
2023/12/01 01:40:32;;;;;;;24.52;13.88;;;-4.50;1.00;;;;;;5072558;28;20223;-70
2023/12/01 01:42:59;;;;;;;21.53;13.80;;;-4.50;1.00;;;;;;5070769;28;20258;-71
2023/12/01 01:45:24;;;;;;;20.98;13.85;;;-4.50;1.00;;;;;;5034103;28;20159;-75
2023/12/01 01:47:52;;;;;;;25.30;13.70;;;-4.50;1.00;;;;;;5043748;28;20221;-75
2023/12/01 01:50:18;;;;;;;19.88;12.63;;;-4.40;1.00;;;;;;5032520;28;20144;-72
2023/12/01 01:52:44;;;;;;;23.70;12.90;;;-4.30;1.00;;;;;;5032805;28;20265;-71
2023/12/01 01:55:12;;;;;;;17.77;13.02;;;-4.20;1.00;;;;;;5030860;28;20410;-72
2023/12/01 01:57:42;;;;;;;20.23;13.35;;;-4.10;1.00;;;;;;5035510;28;20195;-76
2023/12/01 02:00:08;;;;;;;22.50;13.35;;;-4.00;1.00;;;;;;5031353;28;20295;-76
2023/12/01 02:02:35;;;;;;;23.58;13.70;;;-3.90;1.00;;;;;;5064044;28;20224;-75
2023/12/01 02:05:01;;;;;;;21.95;12.55;;;-3.90;1.00;;;;;;5037498;28;20187;-74
2023/12/01 02:07:27;;;;;;;21.55;13.98;;;-3.90;1.00;;;;;;5032369;28;20222;-72
2023/12/01 02:09:56;;;;;;;18.70;13.75;;;-3.80;1.00;;;;;;5037274;28;20197;-75
2023/12/01 02:12:22;;;;;;;23.55;14.48;;;-3.90;1.00;;;;;;5052292;28;20640;-71
2023/12/01 02:14:48;;;;;;;22.73;14.37;;;-3.90;1.00;;;;;;5050044;28;20186;-75
2023/12/01 02:17:13;;;;;;;20.23;14.40;;;-3.90;1.00;;;;;;5065204;28;20263;-70
2023/12/01 02:19:39;;;;;;;23.63;14.30;;;-3.80;1.00;;;;;;5072297;28;20268;-75
2023/12/01 02:22:07;;;;;;;25.13;14.53;;;-3.90;1.00;;;;;;5072378;28;20170;-71
2023/12/01 02:24:33;;;;;;;23.02;12.70;;;-3.80;1.00;;;;;;5068582;28;20189;-76
2023/12/01 02:26:59;;;;;;;21.50;13.63;;;-3.80;1.00;;;;;;5070604;28;20194;-75
2023/12/01 02:29:24;;;;;;;22.40;14.63;;;-3.80;1.00;;;;;;5051514;28;20176;-75
2023/12/01 02:31:50;;;;;;;26.30;13.80;;;-3.70;1.00;;;;;;5037436;28;20198;-71
2023/12/01 02:34:19;;;;;;;22.20;13.70;;;-3.80;1.00;;;;;;5038661;28;20217;-72
2023/12/01 02:36:46;;;;;;;24.33;14.85;;;-3.90;1.00;;;;;;5053990;28;20602;-75
2023/12/01 02:39:13;;;;;;;29.67;16.10;;;-3.80;1.00;;;;;;5046336;28;20191;-70
2023/12/01 02:41:39;;;;;;;26.25;14.15;;;-3.80;1.00;;;;;;5035594;28;20271;-71
2023/12/01 02:44:05;;;;;;;22.73;12.80;;;-3.70;1.00;;;;;;5044090;28;20264;-75
2023/12/01 02:46:30;;;;;;;20.37;12.87;;;-3.70;1.00;;;;;;5053767;28;20397;-73
2023/12/01 02:48:56;;;;;;;29.63;14.67;;;-3.60;1.00;;;;;;5074602;28;20158;-71
2023/12/01 02:51:24;;;;;;;26.47;15.87;;;-3.60;1.00;;;;;;5075746;28;20159;-74
2023/12/01 02:53:49;;;;;;;19.58;13.70;;;-3.60;1.00;;;;;;5074242;28;20560;-73
2023/12/01 02:56:16;;;;;;;26.17;15.67;;;-3.60;1.00;;;;;;5061588;28;20233;-71
2023/12/01 02:58:42;;;;;;;25.13;15.75;;;-3.50;1.00;;;;;;5048724;28;20214;-70
2023/12/01 03:01:07;;;;;;;20.07;14.30;;;-3.60;1.00;;;;;;5035295;28;20648;-75
2023/12/01 03:03:33;;;;;;;22.70;14.90;;;-3.60;1.00;;;;;;5075431;28;20166;-75
2023/12/01 03:05:59;;;;;;;22.80;13.63;;;-3.60;1.00;;;;;;5074463;28;20808;-70
2023/12/01 03:08:25;;;;;;;23.00;13.20;;;-3.50;1.00;;;;;;5073996;28;20232;-71
2023/12/01 03:10:53;;;;;;;20.77;13.43;;;-3.50;1.00;;;;;;5075483;28;20175;-69
2023/12/01 03:13:19;;;;;;;27.52;14.55;;;-3.50;1.00;;;;;;5073404;28;20170;-71
2023/12/01 03:15:45;;;;;;;22.50;14.45;;;-3.50;1.00;;;;;;5038056;28;20182;-73
2023/12/01 03:18:10;;;;;;;19.73;12.67;;;-3.50;1.00;;;;;;5069313;28;20247;-71
2023/12/01 03:20:36;;;;;;;22.60;14.90;;;-3.50;1.00;;;;;;5074675;28;20194;-72
2023/12/01 03:23:02;;;;;;;21.43;13.30;;;-3.40;1.00;;;;;;5074924;28;20623;-75
2023/12/01 03:25:28;;;;;;;24.10;14.60;;;-3.50;1.00;;;;;;5074141;28;20173;-75
2023/12/01 03:27:53;;;;;;;22.60;13.80;;;-3.50;1.00;;;;;;5074705;28;20187;-75
2023/12/01 03:30:19;;;;;;;20.27;12.30;;;-3.60;1.00;;;;;;5067671;28;20174;-71
2023/12/01 03:32:48;;;;;;;26.92;14.68;;;-3.70;1.00;;;;;;5035747;28;20179;-75
2023/12/01 03:35:18;;;;;;;22.02;14.73;;;-3.80;1.00;;;;;;5033691;28;20230;-74
2023/12/01 03:37:44;;;;;;;23.20;14.00;;;-3.90;1.00;;;;;;5034273;28;20190;-70
2023/12/01 03:40:12;;;;;;;24.00;13.35;;;-3.90;1.00;;;;;;5034756;28;20637;-75
2023/12/01 03:42:42;;;;;;;20.98;13.90;;;-4.00;1.00;;;;;;5033881;28;20576;-71
2023/12/01 03:45:12;;;;;;;24.35;14.40;;;-4.10;1.00;;;;;;5038279;28;20186;-74
2023/12/01 03:47:44;;;;;;;14.35;11.73;;;-4.10;1.00;;;;;;5041045;28;20217;-75
2023/12/01 03:50:13;;;;;;;21.52;12.82;;;-4.20;1.00;;;;;;5054698;28;20166;-75
2023/12/01 03:52:44;;;;;;;23.30;12.70;;;-4.20;1.00;;;;;;5054354;28;20167;-75
2023/12/01 03:55:11;;;;;;;20.92;13.10;;;-4.30;1.00;;;;;;5052704;28;20171;-74
2023/12/01 03:57:38;;;;;;;23.75;12.63;;;-4.30;1.00;;;;;;5054167;28;20194;-71
2023/12/01 04:00:08;;;;;;;21.70;12.63;;;-4.40;1.00;;;;;;5046593;28;20315;-71
2023/12/01 04:02:37;;;;;;;17.92;12.77;;;-4.40;1.00;;;;;;5038473;28;20172;-75
2023/12/01 04:05:04;;;;;;;22.77;13.75;;;-4.50;1.00;;;;;;5033333;28;20527;-75
2023/12/01 04:07:29;;;;;;;14.40;12.27;;;-4.50;1.00;;;;;;5034050;28;20191;-73
2023/12/01 04:09:55;;;;;;;23.33;14.40;;;-4.60;1.00;;;;;;5033995;28;20182;-74
2023/12/01 04:12:21;;;;;;;16.90;12.80;;;-4.70;1.00;;;;;;5033334;28;20171;-71
2023/12/01 04:14:46;;;;;;;19.13;13.40;;;-4.70;1.00;;;;;;5046984;28;20261;-70
2023/12/01 04:17:13;;;;;;;20.60;13.37;;;-4.70;1.00;;;;;;5055340;28;20573;-70
2023/12/01 04:19:39;;;;;;;23.80;13.85;;;-4.70;1.00;;;;;;5045801;28;20279;-74
2023/12/01 04:22:05;;;;;;;27.30;14.40;;;-4.80;1.00;;;;;;5041906;28;20636;-75
2023/12/01 04:24:35;;;;;;;20.95;13.63;;;-5.00;1.00;;;;;;5052126;28;20750;-75
2023/12/01 04:27:01;;;;;;;22.35;15.02;;;-5.10;1.00;;;;;;5052870;28;20206;-71
2023/12/01 04:29:29;;;;;;;21.17;13.05;;;-5.10;1.00;;;;;;5053484;28;20175;-71
2023/12/01 04:31:55;;;;;;;20.30;13.13;;;-5.20;1.00;;;;;;5048277;28;20551;-70
2023/12/01 04:34:21;;;;;;;19.73;13.43;;;-5.20;1.00;;;;;;5054965;28;20620;-75
2023/12/01 04:36:48;;;;;;;28.37;13.60;;;-5.20;1.00;;;;;;5052510;28;20274;-74
2023/12/01 04:39:14;;;;;;;17.73;12.32;;;-5.20;1.00;;;;;;5053361;28;20337;-73
2023/12/01 04:41:40;;;;;;;17.03;11.47;;;-5.30;1.00;;;;;;5053558;28;20234;-70
2023/12/01 04:44:06;;;;;;;19.93;12.50;;;-5.30;1.00;;;;;;5051784;28;20401;-75
2023/12/01 04:46:31;;;;;;;19.70;12.90;;;-5.30;1.00;;;;;;5056978;28;20513;-74
2023/12/01 04:48:57;;;;;;;20.73;12.97;;;-5.30;1.00;;;;;;5047443;28;20425;-72
2023/12/01 04:51:23;;;;;;;17.58;12.68;;;-5.30;1.00;;;;;;5035706;28;20464;-70
2023/12/01 04:53:49;;;;;;;21.50;12.85;;;-5.30;1.00;;;;;;5049006;28;20174;-70
2023/12/01 04:56:15;;;;;;;15.17;12.00;;;-5.20;1.00;;;;;;5052311;28;20181;-70
2023/12/01 04:58:41;;;;;;;17.40;12.97;;;-5.10;1.00;;;;;;5052860;28;20521;-75
2023/12/01 05:01:07;;;;;;;18.23;12.87;;;-5.10;1.00;;;;;;5045879;28;20723;-74
2023/12/01 05:03:33;;;;;;;21.25;13.27;;;-5.10;1.00;;;;;;5034287;28;20176;-71
2023/12/01 05:05:58;;;;;;;20.53;12.97;;;-5.00;1.00;;;;;;5031033;28;20308;-74
2023/12/01 05:08:27;;;;;;;20.13;13.90;;;-5.10;1.00;;;;;;5032597;28;20576;-74
2023/12/01 05:10:54;;;;;;;30.17;12.95;;;-5.10;1.00;;;;;;5033222;28;20505;-70
2023/12/01 05:13:20;;;;;;;18.05;12.27;;;-5.10;1.00;;;;;;5032977;28;20648;-70
2023/12/01 05:15:46;;;;;;;20.10;14.33;;;-5.10;1.00;;;;;;5040749;28;20167;-75
2023/12/01 05:18:12;;;;;;;23.90;14.87;;;-5.10;1.00;;;;;;5049918;28;20460;-75
2023/12/01 05:20:39;;;;;;;23.10;14.87;;;-5.10;1.00;;;;;;5046377;28;20190;-71
2023/12/01 05:23:09;;;;;;;19.30;13.13;;;-5.10;1.00;;;;;;5040280;28;20648;-74
2023/12/01 05:25:37;;;;;;;21.13;14.40;;;-5.10;1.00;;;;;;5051779;28;20237;-72
2023/12/01 05:28:05;;;;;;;19.83;13.65;;;-5.10;1.00;;;;;;5052289;28;20187;-69
2023/12/01 05:30:33;;;;;;;18.42;12.40;;;-5.20;1.00;;;;;;5049127;28;20174;-70
2023/12/01 05:32:59;;;;;;;20.27;15.15;;;-5.30;1.00;;;;;;5039484;28;20574;-75
2023/12/01 05:35:25;;;;;;;23.83;15.02;;;-5.40;1.00;;;;;;5059682;28;20170;-75
2023/12/01 05:37:56;;;;;;;27.25;13.82;;;-5.40;1.00;;;;;;5072609;28;20192;-70
2023/12/01 05:40:26;;;;;;;16.58;10.02;;;-5.40;1.00;;;;;;5072603;28;20202;-74
2023/12/01 05:42:54;;;;;;;22.70;13.77;;;-5.50;1.00;;;;;;5053095;28;20160;-71
2023/12/01 05:45:27;;;;;;;21.27;13.52;;;-5.60;1.00;;;;;;5054485;28;20172;-70
2023/12/01 05:47:55;;;;;;;21.25;12.07;;;-5.60;1.00;;;;;;5033640;28;20185;-73
2023/12/01 05:50:22;;;;;;;23.40;13.15;;;-5.60;1.00;;;;;;5033891;28;20282;-74
2023/12/01 05:52:50;;;;;;;21.50;13.73;;;-5.70;1.00;;;;;;5048111;28;20271;-75
2023/12/01 05:55:20;;;;;;;24.27;13.85;;;-5.70;1.00;;;;;;5031543;28;20312;-74
2023/12/01 05:57:50;;;;;;;16.33;12.90;;;-5.90;1.00;;;;;;5032398;28;20274;-70
2023/12/01 06:00:26;;;;;;;19.60;12.95;;;-6.00;1.00;;;;;;5040757;28;20550;-71
2023/12/01 06:02:52;;;;;;;23.13;12.82;;;-6.00;1.00;;;;;;5033018;28;20657;-75
2023/12/01 06:05:21;;;;;;;25.47;13.83;;;-6.00;1.00;;;;;;5030635;28;20179;-75
2023/12/01 06:07:50;;;;;;;17.48;13.80;;;-5.90;1.00;;;;;;5035340;28;20195;-69
2023/12/01 06:10:18;;;;;;;17.55;11.00;;;-6.00;1.00;;;;;;5036696;28;20164;-71
2023/12/01 06:12:44;;;;;;;17.50;12.40;;;-6.10;1.00;;;;;;5039283;28;20171;-75
2023/12/01 06:15:12;;;;;;;20.85;14.65;;;-6.10;1.00;;;;;;5042195;28;20206;-73
2023/12/01 06:17:40;;;;;;;14.15;11.23;;;-6.10;1.00;;;;;;5035664;28;20215;-74
2023/12/01 06:20:16;;;;;;;21.23;14.18;;;-6.10;1.00;;;;;;5054392;28;20612;-75
2023/12/01 06:22:54;;;;;;;19.83;12.48;;;-6.20;1.00;;;;;;5055929;28;20563;-75
2023/12/01 06:25:21;;;;;;;19.40;12.20;;;-6.20;1.00;;;;;;5059629;28;20241;-69
2023/12/01 06:27:47;;;;;;;18.55;13.07;;;-6.20;1.00;;;;;;5074457;28;20194;-74
2023/12/01 06:30:14;;;;;;;19.17;12.98;;;-6.10;1.00;;;;;;5067012;28;20372;-73
2023/12/01 06:32:45;;;;;;;20.75;13.18;;;-6.10;1.00;;;;;;5052965;28;20174;-69
2023/12/01 06:35:16;;;;;;;17.33;12.70;;;-6.20;1.00;;;;;;5055463;28;20210;-73
2023/12/01 06:37:43;;;;;;;17.08;14.93;;;-6.20;1.00;;;;;;5054150;28;20310;-74
2023/12/01 06:40:13;;;;;;;23.20;12.45;;;-6.10;1.00;;;;;;5055756;28;20198;-71
2023/12/01 06:42:39;;;;;;;24.40;13.52;;;-6.10;1.00;;;;;;5056273;28;20623;-71
2023/12/01 06:45:06;;;;;;;17.48;11.93;;;-6.00;1.00;;;;;;5043569;28;20174;-74
2023/12/01 06:47:32;;;;;;;19.88;13.45;;;-5.90;1.00;;;;;;5035643;28;20209;-74
2023/12/01 06:49:58;;;;;;;20.20;12.38;;;-5.80;1.00;;;;;;5048544;28;20174;-73
2023/12/01 06:52:24;;;;;;;23.97;13.47;;;-5.70;1.00;;;;;;5055220;28;20574;-71
2023/12/01 06:54:50;;;;;;;24.57;11.57;;;-5.70;1.00;;;;;;5054434;28;20257;-74
2023/12/01 06:57:15;;;;;;;18.10;11.83;;;-5.60;1.00;;;;;;5055299;28;20813;-70
2023/12/01 06:59:41;;;;;;;18.00;12.60;;;-5.50;1.00;;;;;;5061654;28;20277;-75
2023/12/01 07:02:07;;;;;;;20.63;11.90;;;-5.30;1.00;;;;;;5057527;28;20171;-70
2023/12/01 07:04:33;;;;;;;14.80;11.00;;;-5.20;1.00;;;;;;5050760;28;20509;-71
2023/12/01 07:07:00;;;;;;;21.70;12.53;;;-5.10;1.00;;;;;;5055192;28;20422;-75
2023/12/01 07:09:27;;;;;;;14.60;12.07;;;-5.00;1.00;;;;;;5053417;28;20213;-75
2023/12/01 07:11:53;;;;;;;21.35;13.45;;;-4.90;1.00;;;;;;5054836;28;20368;-75
2023/12/01 07:14:19;;;;;;;23.42;13.13;;;-4.80;1.00;;;;;;5053739;28;20615;-74
2023/12/01 07:16:45;;;;;;;20.65;13.75;;;-4.60;1.00;;;;;;5044155;28;20600;-72
2023/12/01 07:19:11;;;;;;;20.60;15.37;;;-4.50;1.00;;;;;;5034751;28;20168;-69
2023/12/01 07:21:38;;;;;;;24.03;14.60;;;-4.40;1.00;;;;;;5035058;28;20163;-71
2023/12/01 07:24:07;;;;;;;20.92;12.00;;;-4.30;1.00;;;;;;5035066;28;20171;-71
2023/12/01 07:26:33;;;;;;;21.40;12.85;;;-4.30;1.00;;;;;;5033997;28;20164;-73
2023/12/01 07:29:04;;;;;;;21.17;13.13;;;-4.30;1.00;;;;;;5035994;28;20168;-74
2023/12/01 07:31:32;;;;;;;20.88;11.70;;;-4.30;1.00;;;;;;5037934;28;20183;-75
2023/12/01 07:33:57;;;;;;;18.75;11.75;;;-4.30;1.00;;;;;;5049530;28;20171;-75
2023/12/01 07:36:23;;;;;;;26.37;12.40;;;-4.30;1.00;;;;;;5070452;28;20277;-75
2023/12/01 07:38:49;;;;;;;20.63;13.10;;;-4.20;1.00;;;;;;5074817;28;20174;-71
2023/12/01 07:41:14;;;;;;;16.60;12.10;;;-4.20;1.00;;;;;;5073204;28;20201;-74
2023/12/01 07:43:43;;;;;;;16.60;10.50;;;-4.10;1.00;;;;;;5055474;28;20182;-71
2023/12/01 07:46:08;;;;;;;16.17;10.90;;;-4.10;1.00;;;;;;5042885;28;20176;-75
2023/12/01 07:48:35;;;;;;;18.03;12.50;;;-4.10;1.00;;;;;;5048987;28;20251;-72
2023/12/01 07:51:02;;;;;;;15.32;12.20;;;-4.00;1.00;;;;;;5054113;28;20202;-73
2023/12/01 07:53:28;;;;;;;14.45;10.75;;;-3.90;1.00;;;;;;5054195;28;20650;-70
2023/12/01 07:55:54;;;;;;;19.40;11.67;;;-3.80;1.00;;;;;;5042637;28;20192;-75
2023/12/01 07:58:20;;;;;;;18.60;12.13;;;-3.90;1.00;;;;;;5060424;28;20432;-70
2023/12/01 08:00:46;;;;;;;22.70;15.23;;;-3.90;1.00;;;;;;5074130;28;20225;-75
2023/12/01 08:03:12;;;;;;;17.43;13.73;;;-3.80;1.00;;;;;;5065627;28;20225;-74
2023/12/01 08:05:39;;;;;;;14.47;10.77;;;-3.80;1.00;;;;;;5053308;28;20887;-70
2023/12/01 08:08:06;;;;;;;21.42;12.60;;;-3.70;1.00;;;;;;5054196;28;20410;-69
2023/12/01 08:10:32;;;;;;;20.20;12.98;;;-3.60;1.00;;;;;;5053472;28;20244;-74
2023/12/01 08:12:58;;;;;;;15.80;10.90;;;-3.50;1.00;;;;;;5054005;28;20179;-70
2023/12/01 08:15:24;;;;;;;17.83;11.88;;;-3.40;1.00;;;;;;5053611;28;20432;-75
2023/12/01 08:17:50;;;;;;;15.27;10.90;;;-3.30;1.00;;;;;;5054412;28;20276;-74
2023/12/01 08:20:16;;;;;;;19.73;12.50;;;-3.20;1.00;;;;;;5053820;28;20637;-72
2023/12/01 08:22:48;;;;;;;23.63;11.63;;;-3.20;1.00;;;;;;5053875;28;20488;-75
2023/12/01 08:25:14;;;;;;;16.60;12.20;;;-3.10;1.00;;;;;;5052842;28;20178;-75
2023/12/01 08:27:40;;;;;;;14.55;10.70;;;-3.00;1.00;;;;;;5053042;28;20188;-75
2023/12/01 08:30:07;;;;;;;14.47;12.40;;;-2.90;1.00;;;;;;5053334;28;20185;-75
2023/12/01 08:32:33;;;;;;;17.45;11.98;;;-2.80;2.20;;;;;;5054100;28;20922;-72
2023/12/01 08:34:59;;;;;;;17.07;11.97;;;-2.70;7.60;;;;;;5054024;28;20266;-70
2023/12/01 08:37:25;;;;;;;16.90;11.83;;;-2.60;12.70;;;;;;5036015;28;20470;-73
2023/12/01 08:39:50;;;;;;;22.10;12.33;;;-2.60;16.10;;;;;;5033549;28;20446;-75
2023/12/01 08:42:18;;;;;;;13.63;11.47;;;-2.50;21.20;;;;;;5032534;28;20472;-76
2023/12/01 08:44:44;;;;;;;11.93;10.32;;;-2.40;25.10;;;;;;5034817;28;20207;-70
2023/12/01 08:47:11;;;;;;;14.77;11.13;;;-2.40;25.20;;;;;;5036130;28;20563;-74
2023/12/01 08:49:37;;;;;;;18.13;11.57;;;-2.30;28.70;;;;;;5053281;28;20397;-71
2023/12/01 08:52:03;;;;;;;13.80;10.43;;;-2.30;31.70;;;;;;5053397;28;20175;-75
2023/12/01 08:54:28;;;;;;;16.93;13.60;;;-2.30;35.10;;;;;;5053036;28;20171;-73
2023/12/01 08:56:54;;;;;;;16.83;11.73;;;-2.30;35.90;;;;;;5052329;28;20195;-75
2023/12/01 08:59:20;;;;;;;15.70;10.90;;;-2.20;42.70;;;;;;5053177;28;20624;-73
2023/12/01 09:01:45;;;;;;;15.13;11.83;;;-2.20;49.30;;;;;;5053178;28;20159;-71
2023/12/01 09:04:11;;;;;;;17.10;11.30;;;-2.10;51.20;;;;;;5053259;28;20159;-74
2023/12/01 09:06:38;;;;;;;16.60;10.50;;;-2.10;54.20;;;;;;5050867;28;20632;-74
2023/12/01 09:09:04;;;;;;;13.35;11.40;;;-2.10;54.70;;;;;;5052858;28;20163;-71
2023/12/01 09:11:30;;;;;;;34.38;19.83;;;-2.10;58.50;;;;;;5053092;28;20166;-75
2023/12/01 09:13:56;;;;;;;26.67;14.77;;;-2.00;65.60;;;;;;5052924;28;20624;-70
2023/12/01 09:16:23;;;;;;;17.70;12.00;;;-2.00;69.80;;;;;;5051340;28;20643;-70
2023/12/01 09:18:50;;;;;;;14.68;10.95;;;-1.90;75.80;;;;;;5050137;28;20221;-75
2023/12/01 09:21:16;;;;;;;14.50;11.40;;;-2.00;74.20;;;;;;5033735;28;20282;-74
2023/12/01 09:23:42;;;;;;;16.50;10.37;;;-2.00;68.10;;;;;;5031928;28;20261;-75
2023/12/01 09:26:08;;;;;;;16.27;11.93;;;-2.00;71.10;;;;;;5032094;28;20410;-73
2023/12/01 09:28:34;;;;;;;12.90;11.10;;;-1.90;86.20;;;;;;5031803;28;20207;-74
2023/12/01 09:31:03;;;;;;;17.58;12.07;;;-1.80;86.50;;;;;;5036056;28;20625;-70
2023/12/01 09:33:30;;;;;;;15.52;11.40;;;-1.70;86.50;;;;;;5052648;28;20214;-75
2023/12/01 09:35:56;;;;;;;17.05;10.90;;;-1.60;86.50;;;;;;5051835;28;20159;-75
2023/12/01 09:38:22;;;;;;;15.43;12.40;;;-1.60;86.70;;;;;;5050366;28;20219;-74
2023/12/01 09:40:47;;;;;;;20.23;11.30;;;-1.50;86.60;;;;;;5052619;28;20225;-70
2023/12/01 09:43:18;;;;;;;14.80;10.53;;;-1.50;86.70;;;;;;5055708;28;20508;-71
2023/12/01 09:45:44;;;;;;;14.48;9.85;;;-1.50;86.60;;;;;;5048921;28;20670;-71
2023/12/01 09:48:11;;;;;;;19.67;12.95;;;-1.50;86.60;;;;;;5056435;28;20690;-71
2023/12/01 09:50:37;;;;;;;17.40;11.63;;;-1.40;86.70;;;;;;5045901;28;20178;-71
2023/12/01 09:53:04;;;;;;;19.88;12.75;;;-1.30;86.80;;;;;;5041110;28;20195;-72
2023/12/01 09:55:31;;;;;;;16.35;11.65;;;-1.40;86.70;;;;;;5049487;28;20174;-75
2023/12/01 09:57:57;;;;;;;19.73;11.75;;;-1.40;86.70;;;;;;5041520;28;20202;-71
2023/12/01 10:00:23;;;;;;;18.80;12.98;;;-1.50;71.90;;;;;;5041396;28;20207;-74
2023/12/01 10:02:49;;;;;;;14.97;11.47;;;-1.50;78.50;;;;;;5036630;28;20168;-71
2023/12/01 10:05:18;;;;;;;17.47;13.27;;;-1.50;82.70;;;;;;5035569;28;20174;-71
2023/12/01 10:07:45;;;;;;;18.20;12.52;;;-1.40;86.70;;;;;;5040067;28;20446;-71
2023/12/01 10:10:21;;;;;;;13.05;11.68;;;-1.30;86.80;;;;;;5038574;28;20176;-72
2023/12/01 10:12:58;;;;;;;18.42;10.43;;;-1.20;87.00;;;;;;5040210;28;20202;-70
2023/12/01 10:15:26;;;;;;;16.73;11.05;;;-1.10;86.90;;;;;;5053129;28;20244;-71
2023/12/01 10:18:09;;;;;;;14.13;10.60;;;-1.00;90.70;;;;;;5035552;28;20656;-72
2023/12/01 10:20:35;;;;;;;16.67;12.25;;;-0.80;96.60;;;;;;5041400;28;20201;-74
2023/12/01 10:23:15;;;;;;;18.10;12.30;;;-0.80;96.90;;;;;;5056105;28;20213;-76
2023/12/01 10:25:45;;;;;;;11.25;10.05;;;-0.70;99.70;;;;;;5042094;28;20168;-75
2023/12/01 10:28:12;;;;;;;19.58;12.00;;;-0.70;99.50;;;;;;5044729;28;20190;-74
2023/12/01 10:30:50;;;;;;;16.38;11.95;;;-0.80;96.40;;;;;;5053862;28;20275;-74
2023/12/01 10:33:16;;;;;;;17.85;12.00;;;-0.80;99.90;;;;;;5054060;28;20171;-74
2023/12/01 10:36:02;;;;;;;15.57;11.57;;;-0.60;99.90;;;;;;5046935;28;20683;-76
2023/12/01 10:38:29;;;;;;;12.52;10.57;;;-0.30;99.90;;;;;;5044227;28;20842;-73
2023/12/01 10:40:57;;;;;;;17.83;12.15;;;-0.10;99.90;;;;;;5039432;28;20211;-77
2023/12/01 10:43:24;;;;;;;20.98;11.98;;;0.10;99.90;;;;;;5043352;28;20168;-76
2023/12/01 10:45:50;;;;;;;15.40;11.30;;;0.20;99.90;;;;;;5036043;28;20176;-74
2023/12/01 10:48:21;;;;;;;16.37;12.50;;;0.40;99.90;;;;;;5035891;28;20450;-74
2023/12/01 10:50:48;;;;;;;18.77;12.60;;;0.50;99.90;;;;;;5035791;28;20495;-77
2023/12/01 10:53:19;;;;;;;18.57;12.17;;;0.50;99.90;;;;;;5035516;28;20410;-74
2023/12/01 10:55:48;;;;;;;15.93;11.70;;;0.60;99.90;;;;;;5036889;28;20429;-75
2023/12/01 10:58:22;;;;;;;17.90;11.60;;;0.50;99.90;;;;;;5073741;28;21034;-74
2023/12/01 11:00:57;;;;;;;14.47;12.40;;;0.50;99.90;;;;;;5074017;28;20459;-80
2023/12/01 11:03:28;;;;;;;20.75;12.23;;;0.50;99.90;;;;;;5055275;28;20401;-74
2023/12/01 11:06:01;;;;;;;15.30;11.43;;;0.40;99.20;;;;;;5054488;28;20502;-76
2023/12/01 11:08:49;;;;;;;13.83;11.97;;;0.40;99.40;;;;;;5055297;28;20424;-78
2023/12/01 11:11:33;;;;;;;14.87;10.60;;;0.50;99.90;;;;;;5055364;28;20755;-76
2023/12/01 11:14:20;;;;;;;13.13;9.93;;;0.30;94.20;;;;;;5052590;28;20457;-76
2023/12/01 11:16:49;;;;;;;10.80;9.40;;;0.10;95.60;;;;;;5034123;28;20599;-76
2023/12/01 11:19:15;;;;;;;11.38;9.68;;;0.00;99.90;;;;;;5033932;28;20415;-75
2023/12/01 11:21:42;;;;;;;12.40;9.43;;;0.20;99.90;;;;;;5035171;28;20164;-75
2023/12/01 11:24:31;;;;;;;13.73;9.60;;;0.30;99.90;;;;;;5033911;28;20229;-76
2023/12/01 11:27:03;;;;;;;13.57;9.00;;;0.40;99.90;;;;;;5063054;28;20944;-76
2023/12/01 11:29:30;;;;;;;14.20;9.83;;;0.50;99.90;;;;;;5075037;28;20404;-74
2023/12/01 11:31:58;;;;;;;15.00;9.50;;;0.50;99.90;;;;;;5069957;28;20390;-77
2023/12/01 11:34:27;;;;;;;12.60;10.10;;;0.50;99.90;;;;;;5054111;28;20628;-75
2023/12/01 11:36:53;;;;;;;10.43;9.23;;;0.60;99.90;;;;;;5054224;28;20432;-74
2023/12/01 11:39:32;;;;;;;11.40;8.50;;;0.60;99.90;;;;;;5054470;28;20425;-78
2023/12/01 11:41:57;;;;;;;10.10;9.03;;;0.50;99.90;;;;;;5074767;28;20404;-74
2023/12/01 11:44:40;;;;;;;9.77;8.80;;;0.60;99.90;;;;;;5074553;28;20407;-80
2023/12/01 11:47:08;;;;;;;9.83;8.33;;;0.70;99.90;;;;;;5070423;28;20186;-77
2023/12/01 11:49:39;;;;;;;11.20;9.50;;;0.80;99.90;;;;;;5054862;28;20406;-76
2023/12/01 11:52:18;;;;;;;11.77;9.50;;;0.90;99.90;;;;;;5044859;28;20410;-76
2023/12/01 11:54:45;;;;;;;13.10;9.23;;;0.90;99.90;;;;;;5032744;28;20422;-76
2023/12/01 11:57:17;;;;;;;10.97;9.20;;;0.90;99.90;;;;;;5034476;28;20457;-74
2023/12/01 11:59:43;;;;;;;11.27;9.87;;;0.90;99.90;;;;;;5034506;28;20474;-76
2023/12/01 12:02:09;;;;;;;15.37;9.73;;;0.90;99.90;;;;;;5042424;28;20405;-74
2023/12/01 12:04:37;;;;;;;10.90;9.40;;;0.80;99.90;;;;;;5051680;28;20413;-75
2023/12/01 12:07:05;;;;;;;12.67;11.37;;;0.80;99.90;;;;;;5054348;28;20429;-76
2023/12/01 12:09:32;;;;;;;10.53;9.40;;;0.90;99.90;;;;;;5054315;28;20937;-74
2023/12/01 12:11:59;;;;;;;11.83;10.60;;;0.90;99.90;;;;;;5053693;28;20406;-74
2023/12/01 12:14:30;;;;;;;10.90;9.80;;;0.90;99.90;;;;;;5053902;28;20441;-78
2023/12/01 12:16:56;;;;;;;10.70;9.70;;;0.90;99.90;;;;;;5043854;28;20433;-74
2023/12/01 12:19:22;;;;;;;9.67;8.67;;;1.00;99.90;;;;;;5033994;28;20437;-75
2023/12/01 12:21:48;;;;;;;11.53;9.37;;;1.00;99.90;;;;;;5034160;28;20390;-77
2023/12/01 12:24:15;;;;;;;11.27;10.10;;;1.10;99.90;;;;;;5034143;28;20408;-76
2023/12/01 12:26:42;;;;;;;12.23;9.50;;;1.20;99.90;;;;;;5032420;28;20984;-77
2023/12/01 12:29:08;;;;;;;16.73;10.40;;;1.30;99.90;;;;;;5033897;28;20410;-78
2023/12/01 12:31:37;;;;;;;12.13;9.60;;;1.30;99.90;;;;;;5046393;28;20409;-75
2023/12/01 12:34:08;;;;;;;13.63;10.17;;;1.30;99.90;;;;;;5053754;28;20698;-75
2023/12/01 12:36:35;;;;;;;12.90;10.20;;;1.30;99.90;;;;;;5040721;28;20496;-75